createdAt,value
2019-01-19T00:01:31.799Z,4.80
2019-01-19T00:04:21.299Z,4.83
2019-01-19T00:07:08.206Z,5.40
2019-01-19T00:09:54.789Z,5.50
2019-01-19T00:12:49.128Z,5.07
2019-01-19T00:15:20.733Z,5.33
2019-01-19T00:18:01.223Z,4.57
2019-01-19T00:20:41.543Z,4.90
2019-01-19T00:23:25.203Z,5.63
2019-01-19T00:26:05.471Z,5.90
2019-01-19T00:28:49.376Z,5.13
2019-01-19T00:31:31.197Z,5.83
2019-01-19T00:34:05.531Z,5.60
2019-01-19T00:36:43.228Z,5.97
2019-01-19T00:39:14.969Z,5.50
2019-01-19T00:42:03.464Z,5.37
2019-01-19T00:44:35.009Z,5.60
2019-01-19T00:47:06.668Z,5.77
2019-01-19T00:49:36.115Z,6.03
2019-01-19T00:52:38.250Z,4.93
2019-01-19T00:55:20.088Z,5.70
2019-01-19T00:58:09.969Z,5.90
2019-01-19T01:00:42.809Z,6.60
2019-01-19T01:03:26.628Z,5.20
2019-01-19T01:06:16.782Z,6.00
2019-01-19T01:09:00.248Z,5.67
2019-01-19T01:11:31.907Z,6.20
2019-01-19T01:14:03.561Z,5.30
2019-01-19T01:16:48.350Z,6.37
2019-01-19T01:19:31.657Z,5.40
2019-01-19T01:22:05.934Z,5.97
2019-01-19T01:24:43.556Z,5.17
2019-01-19T01:27:17.950Z,4.83
2019-01-19T01:30:01.710Z,5.60
2019-01-19T01:32:33.543Z,4.90
2019-01-19T01:35:21.650Z,6.07
2019-01-19T01:38:02.233Z,5.60
2019-01-19T01:40:46.096Z,6.47
2019-01-19T01:43:23.575Z,6.70
2019-01-19T01:46:10.373Z,5.93
2019-01-19T01:48:44.893Z,5.37
2019-01-19T01:51:42.255Z,5.30
2019-01-19T01:54:37.896Z,5.87
2019-01-19T01:57:09.314Z,6.47
2019-01-19T01:59:55.968Z,6.33
2019-01-19T02:02:43.847Z,6.03
2019-01-19T02:05:30.370Z,7.20
2019-01-19T02:08:04.841Z,5.80
2019-01-19T02:10:59.242Z,6.30
2019-01-19T02:13:50.292Z,6.27
2019-01-19T02:16:42.953Z,6.53
2019-01-19T02:19:32.461Z,5.60
2019-01-19T02:22:19.540Z,6.00
2019-01-19T02:25:03.302Z,6.30
2019-01-19T02:27:49.884Z,6.43
2019-01-19T02:30:44.250Z,6.53
2019-01-19T02:33:34.038Z,5.90
2019-01-19T02:36:17.172Z,6.93
2019-01-19T02:39:12.418Z,6.87
2019-01-19T02:41:58.986Z,6.30
2019-01-19T02:44:33.322Z,6.17
2019-01-19T02:47:27.449Z,5.83
2019-01-19T02:50:05.108Z,6.23
2019-01-19T02:52:52.941Z,6.97
2019-01-19T02:55:37.254Z,6.30
2019-01-19T02:58:20.708Z,6.60
2019-01-19T03:01:13.402Z,6.40
2019-01-19T03:04:01.562Z,6.90
2019-01-19T03:06:57.469Z,6.30
2019-01-19T03:09:53.341Z,6.70
2019-01-19T03:12:36.949Z,6.43
2019-01-19T03:15:16.888Z,6.33
2019-01-19T03:18:12.494Z,6.33
2019-01-19T03:20:52.668Z,7.53
2019-01-19T03:23:41.035Z,6.10
2019-01-19T03:26:32.305Z,6.10
2019-01-19T03:29:09.643Z,7.63
2019-01-19T03:31:59.454Z,6.43
2019-01-19T03:34:39.959Z,6.43
2019-01-19T03:37:23.607Z,7.27
2019-01-19T03:40:01.276Z,7.80
2019-01-19T03:42:45.101Z,7.70
2019-01-19T03:45:33.395Z,6.67
2019-01-19T03:48:13.789Z,6.57
2019-01-19T03:51:18.614Z,6.43
2019-01-19T03:53:59.461Z,7.70
2019-01-19T03:56:40.627Z,7.50
2019-01-19T03:59:35.648Z,7.40
2019-01-19T04:02:16.034Z,7.80
2019-01-19T04:04:56.638Z,8.13
2019-01-19T04:07:28.231Z,7.17
2019-01-19T04:10:02.774Z,7.03
2019-01-19T04:12:37.095Z,7.87
2019-01-19T04:15:43.714Z,7.10
2019-01-19T04:18:15.370Z,8.03
2019-01-19T04:20:59.022Z,7.77
2019-01-19T04:23:27.364Z,8.23
2019-01-19T04:25:58.895Z,8.37
2019-01-19T04:28:27.536Z,8.87
2019-01-19T04:30:55.945Z,9.00
2019-01-19T04:33:24.370Z,9.30
2019-01-19T04:35:52.882Z,8.83
2019-01-19T04:38:21.277Z,9.00
2019-01-19T04:40:51.471Z,8.80
2019-01-19T04:43:19.977Z,10.13
2019-01-19T04:45:48.439Z,9.87
2019-01-19T04:48:18.486Z,9.40
2019-01-19T04:50:46.847Z,9.73
2019-01-19T04:53:15.233Z,9.53
2019-01-19T04:55:43.515Z,8.90
2019-01-19T04:58:12.134Z,9.83
2019-01-19T05:00:40.418Z,9.43
2019-01-19T05:03:08.743Z,9.13
2019-01-19T05:05:37.207Z,9.63
2019-01-19T05:08:05.539Z,7.97
2019-01-19T05:10:34.408Z,8.77
2019-01-19T05:13:02.926Z,9.57
2019-01-19T05:15:31.236Z,9.60
2019-01-19T05:17:59.910Z,10.67
2019-01-19T05:20:28.326Z,9.50
2019-01-19T05:22:56.820Z,10.53
2019-01-19T05:25:25.305Z,9.40
2019-01-19T05:27:53.696Z,9.77
2019-01-19T05:30:22.202Z,9.60
2019-01-19T05:32:50.911Z,9.63
2019-01-19T05:35:19.306Z,11.03
2019-01-19T05:37:47.677Z,10.17
2019-01-19T05:40:16.178Z,10.40
2019-01-19T05:42:44.699Z,9.47
2019-01-19T05:45:14.167Z,9.80
2019-01-19T05:47:42.808Z,10.80
2019-01-19T05:50:19.609Z,10.43
2019-01-19T05:52:48.128Z,9.30
2019-01-19T05:55:16.552Z,10.53
2019-01-19T05:57:45.017Z,10.47
2019-01-19T06:00:17.596Z,10.43
2019-01-19T06:02:46.151Z,10.43
2019-01-19T06:05:14.546Z,10.97
2019-01-19T06:07:42.929Z,10.43
2019-01-19T06:10:13.989Z,10.93
2019-01-19T06:12:42.334Z,10.37
2019-01-19T06:15:15.296Z,10.13
2019-01-19T06:17:43.618Z,9.93
2019-01-19T06:20:16.710Z,10.73
2019-01-19T06:22:45.032Z,11.60
2019-01-19T06:25:14.976Z,11.17
2019-01-19T06:27:43.587Z,11.10
2019-01-19T06:30:15.335Z,11.50
2019-01-19T06:32:43.809Z,10.63
2019-01-19T06:35:12.263Z,12.20
2019-01-19T06:37:40.993Z,12.50
2019-01-19T06:40:12.089Z,11.60
2019-01-19T06:42:40.573Z,11.73
2019-01-19T06:45:14.604Z,12.13
2019-01-19T06:47:43.025Z,12.43
2019-01-19T06:50:13.983Z,12.17
2019-01-19T06:52:42.447Z,12.83
2019-01-19T06:55:13.385Z,11.77
2019-01-19T06:57:41.910Z,11.83
2019-01-19T07:00:13.108Z,11.97
2019-01-19T07:02:43.119Z,12.80
2019-01-19T07:05:11.536Z,12.20
2019-01-19T07:07:39.879Z,12.63
2019-01-19T07:10:17.205Z,11.33
2019-01-19T07:12:45.789Z,12.90
2019-01-19T07:15:16.127Z,12.40
2019-01-19T07:17:44.603Z,12.00
2019-01-19T07:20:15.520Z,12.10
2019-01-19T07:22:43.924Z,11.30
2019-01-19T07:25:12.657Z,11.53
2019-01-19T07:27:41.278Z,12.93
2019-01-19T07:30:12.779Z,11.77
2019-01-19T07:32:41.203Z,12.10
2019-01-19T07:35:09.544Z,12.53
2019-01-19T07:37:38.094Z,12.00
2019-01-19T07:40:09.415Z,12.07
2019-01-19T07:42:38.774Z,12.03
2019-01-19T07:45:09.153Z,11.97
2019-01-19T07:47:38.025Z,11.93
2019-01-19T07:50:12.050Z,14.23
2019-01-19T07:52:42.307Z,16.70
2019-01-19T07:55:12.976Z,13.20
2019-01-19T07:57:41.354Z,14.00
2019-01-19T08:00:22.020Z,13.87
2019-01-19T08:02:50.544Z,13.17
2019-01-19T08:05:18.967Z,13.93
2019-01-19T08:07:47.401Z,12.47
2019-01-19T08:10:17.786Z,12.30
2019-01-19T08:12:46.393Z,11.23
2019-01-19T08:15:20.552Z,11.63
2019-01-19T08:17:48.833Z,12.83
2019-01-19T08:20:17.180Z,12.47
2019-01-19T08:22:45.697Z,12.80
2019-01-19T08:25:14.454Z,11.60
2019-01-19T08:27:43.049Z,12.07
2019-01-19T08:30:19.961Z,12.07
2019-01-19T08:32:48.271Z,12.77
2019-01-19T08:35:18.186Z,12.10
2019-01-19T08:37:47.558Z,12.40
2019-01-19T08:40:18.679Z,14.07
2019-01-19T08:42:48.626Z,13.13
2019-01-19T08:45:18.068Z,13.13
2019-01-19T08:47:46.652Z,12.97
2019-01-19T08:50:15.003Z,12.83
2019-01-19T08:52:43.341Z,14.63
2019-01-19T08:55:11.874Z,10.93
2019-01-19T08:57:40.396Z,14.03
2019-01-19T09:00:28.180Z,11.87
2019-01-19T09:02:56.705Z,8.87
2019-01-19T09:05:25.123Z,12.27
2019-01-19T09:07:53.567Z,12.23
2019-01-19T09:10:21.944Z,12.93
2019-01-19T09:12:50.288Z,13.10
2019-01-19T09:15:23.655Z,14.37
2019-01-19T09:17:52.039Z,12.50
2019-01-19T09:20:21.169Z,10.73
2019-01-19T09:23:02.815Z,10.13
2019-01-19T09:25:31.182Z,10.77
2019-01-19T09:28:01.337Z,9.10
2019-01-19T09:30:29.753Z,9.80
2019-01-19T09:32:58.574Z,9.43
2019-01-19T09:35:26.966Z,10.33
2019-01-19T09:37:55.388Z,10.23
2019-01-19T09:40:23.877Z,10.57
2019-01-19T09:42:52.691Z,9.40
2019-01-19T09:45:21.365Z,8.90
2019-01-19T09:47:50.020Z,10.30
2019-01-19T09:50:20.160Z,10.40
2019-01-19T09:52:48.454Z,9.40
2019-01-19T09:55:17.038Z,10.47
2019-01-19T09:57:45.468Z,10.83
2019-01-19T10:00:19.166Z,11.57
2019-01-19T10:02:47.471Z,11.13
2019-01-19T10:05:18.852Z,12.03
2019-01-19T10:07:48.779Z,11.17
2019-01-19T10:10:17.390Z,11.77
2019-01-19T10:12:45.791Z,11.27
2019-01-19T10:15:18.728Z,11.93
2019-01-19T10:17:47.126Z,11.57
2019-01-19T10:20:27.529Z,13.40
2019-01-19T10:23:00.474Z,12.97
2019-01-19T10:25:28.937Z,11.43
2019-01-19T10:27:57.312Z,11.77
2019-01-19T10:30:27.656Z,21.63
2019-01-19T10:32:56.039Z,12.47
2019-01-19T10:35:24.757Z,11.37
2019-01-19T10:37:56.510Z,15.33
2019-01-19T10:40:23.566Z,13.97
2019-01-19T10:42:52.592Z,12.53
2019-01-19T10:45:28.992Z,16.83
2019-01-19T10:47:57.587Z,16.70
2019-01-19T10:50:26.299Z,14.20
2019-01-19T10:52:54.990Z,14.20
2019-01-19T10:55:24.549Z,12.33
2019-01-19T10:57:53.223Z,14.03
2019-01-19T11:00:24.731Z,11.57
2019-01-19T11:02:53.772Z,19.90
2019-01-19T11:05:22.277Z,14.87
2019-01-19T11:07:50.798Z,12.80
2019-01-19T11:10:28.115Z,12.57
2019-01-19T11:12:58.263Z,21.80
2019-01-19T11:15:26.914Z,12.40
2019-01-19T11:17:55.401Z,12.37
2019-01-19T11:20:31.136Z,11.33
2019-01-19T11:23:00.941Z,13.53
2019-01-19T11:25:29.846Z,14.03
2019-01-19T11:27:58.467Z,20.40
2019-01-19T11:30:31.581Z,12.20
2019-01-19T11:33:00.249Z,33.17
2019-01-19T11:35:29.269Z,22.10
2019-01-19T11:37:57.664Z,14.53
2019-01-19T11:40:37.009Z,44.70
2019-01-19T11:43:07.150Z,27.37
2019-01-19T11:45:35.526Z,14.67
2019-01-19T11:48:03.926Z,14.20
2019-01-19T11:50:32.421Z,24.97
2019-01-19T11:53:00.849Z,12.63
2019-01-19T11:55:29.431Z,16.23
2019-01-19T11:58:04.652Z,12.33
2019-01-19T12:00:35.386Z,13.23
2019-01-19T12:03:04.160Z,12.83
2019-01-19T12:05:32.737Z,11.53
2019-01-19T12:08:01.126Z,11.83
2019-01-19T12:10:31.232Z,11.47
2019-01-19T12:12:59.664Z,11.03
2019-01-19T12:15:28.318Z,10.87
2019-01-19T12:17:57.166Z,11.60
2019-01-19T12:20:31.015Z,11.47
2019-01-19T12:22:59.373Z,10.77
2019-01-19T12:25:28.279Z,11.00
2019-01-19T12:27:56.688Z,10.43
2019-01-19T12:30:30.151Z,11.57
2019-01-19T12:32:58.510Z,12.37
2019-01-19T12:35:27.055Z,12.90
2019-01-19T12:37:55.808Z,12.17
2019-01-19T12:40:26.760Z,12.87
2019-01-19T12:43:00.939Z,13.00
2019-01-19T12:45:41.364Z,11.97
2019-01-19T12:48:11.738Z,11.23
2019-01-19T12:50:40.190Z,10.57
2019-01-19T12:53:08.854Z,10.00
2019-01-19T12:55:37.266Z,10.20
2019-01-19T12:58:06.831Z,9.70
2019-01-19T13:00:35.576Z,11.47
2019-01-19T13:03:04.485Z,11.53
2019-01-19T13:05:45.333Z,11.30
2019-01-19T13:08:34.144Z,11.20
2019-01-19T13:11:06.483Z,11.57
2019-01-19T13:13:39.475Z,11.40
2019-01-19T13:16:44.923Z,12.47
2019-01-19T13:19:25.706Z,12.10
2019-01-19T13:22:19.807Z,11.47
2019-01-19T13:25:03.374Z,12.23
2019-01-19T13:27:59.608Z,12.07
2019-01-19T13:30:37.262Z,11.23
2019-01-19T13:33:18.209Z,10.70
2019-01-19T13:35:52.692Z,11.03
2019-01-19T13:38:30.068Z,12.30
2019-01-19T13:41:25.848Z,11.37
2019-01-19T13:44:00.317Z,12.10
2019-01-19T13:46:37.674Z,12.03
2019-01-19T13:49:26.962Z,12.47
2019-01-19T13:52:19.076Z,10.80
2019-01-19T13:55:16.591Z,12.57
2019-01-19T13:58:03.492Z,11.93
2019-01-19T14:00:36.291Z,11.73
2019-01-19T14:03:07.062Z,12.47
2019-01-19T14:05:41.872Z,12.93
2019-01-19T14:08:30.009Z,12.60
2019-01-19T14:11:22.827Z,11.73
2019-01-19T14:14:12.377Z,11.67
2019-01-19T14:17:10.054Z,12.13
2019-01-19T14:19:47.666Z,12.10
2019-01-19T14:22:24.960Z,12.57
2019-01-19T14:25:19.457Z,13.13
2019-01-19T14:28:09.226Z,10.83
2019-01-19T14:30:55.982Z,12.63
2019-01-19T14:33:27.680Z,12.60
2019-01-19T14:35:59.370Z,12.13
2019-01-19T14:38:46.270Z,12.20
2019-01-19T14:41:18.014Z,13.63
2019-01-19T14:43:55.277Z,11.83
2019-01-19T14:46:29.585Z,11.53
2019-01-19T14:49:10.433Z,10.40
2019-01-19T14:51:58.770Z,11.00
2019-01-19T14:54:32.962Z,11.20
2019-01-19T14:57:19.683Z,12.40
2019-01-19T14:59:57.160Z,11.43
2019-01-19T15:02:50.468Z,13.83
2019-01-19T15:05:31.062Z,12.53
2019-01-19T15:08:21.115Z,12.40
2019-01-19T15:11:04.888Z,18.13
2019-01-19T15:13:43.067Z,13.40
2019-01-19T15:16:17.408Z,11.20
2019-01-19T15:19:06.317Z,13.33
2019-01-19T15:21:50.613Z,14.30
2019-01-19T15:24:22.653Z,12.27
2019-01-19T15:27:21.578Z,10.27
2019-01-19T15:30:13.855Z,12.93
2019-01-19T15:33:02.319Z,14.13
2019-01-19T15:35:53.200Z,16.43
2019-01-19T15:38:36.753Z,13.17
2019-01-19T15:41:14.132Z,11.47
2019-01-19T15:44:13.403Z,13.57
2019-01-19T15:46:50.758Z,11.87
2019-01-19T15:49:34.454Z,11.10
2019-01-19T15:52:20.903Z,12.40
2019-01-19T15:54:55.661Z,12.27
2019-01-19T15:57:45.274Z,12.20
2019-01-19T16:00:38.084Z,13.97
2019-01-19T16:03:12.277Z,12.43
2019-01-19T16:06:02.428Z,13.17
2019-01-19T16:08:41.764Z,15.37
2019-01-19T16:11:37.495Z,11.60
2019-01-19T16:14:15.048Z,12.17
2019-01-19T16:16:49.703Z,12.43
2019-01-19T16:19:30.557Z,13.27
2019-01-19T16:22:18.783Z,14.23
2019-01-19T16:25:09.919Z,12.37
2019-01-19T16:27:50.440Z,13.03
2019-01-19T16:30:28.377Z,14.43
2019-01-19T16:33:03.343Z,13.93
2019-01-19T16:35:42.627Z,13.20
2019-01-19T16:38:23.490Z,13.73
2019-01-19T16:41:10.403Z,13.50
2019-01-19T16:43:42.244Z,13.40
2019-01-19T16:46:17.066Z,13.67
2019-01-19T16:48:58.532Z,13.50
2019-01-19T16:51:33.348Z,14.43
2019-01-19T16:54:11.834Z,13.73
2019-01-19T16:56:46.447Z,13.10
2019-01-19T16:59:18.207Z,13.63
2019-01-19T17:01:58.947Z,13.83
2019-01-19T17:04:42.483Z,13.70
2019-01-19T17:07:16.804Z,13.37
2019-01-19T17:09:51.112Z,14.37
2019-01-19T17:12:31.451Z,11.97
2019-01-19T17:15:11.875Z,13.07
2019-01-19T17:17:46.247Z,12.63
2019-01-19T17:20:17.933Z,13.20
2019-01-19T17:22:58.532Z,13.40
2019-01-19T17:25:42.419Z,13.20
2019-01-19T17:28:19.906Z,13.00
2019-01-19T17:31:11.232Z,14.57
2019-01-19T17:34:01.299Z,18.63
2019-01-19T17:36:38.296Z,17.37
2019-01-19T17:39:28.133Z,18.67
2019-01-19T17:41:59.774Z,19.43
2019-01-19T17:44:48.380Z,18.47
2019-01-19T17:47:28.649Z,19.80
2019-01-19T17:50:12.296Z,17.47
2019-01-19T17:52:46.791Z,18.80
2019-01-19T17:55:38.424Z,19.03
2019-01-19T17:58:30.739Z,18.70
2019-01-19T18:01:02.720Z,19.57
2019-01-19T18:03:58.928Z,20.47
2019-01-19T18:06:33.858Z,18.83
2019-01-19T18:09:15.360Z,18.40
2019-01-19T18:11:52.923Z,23.67
2019-01-19T18:14:24.855Z,22.33
2019-01-19T18:17:20.928Z,20.67
2019-01-19T18:20:18.013Z,21.80
2019-01-19T18:22:58.343Z,20.10
2019-01-19T18:25:45.150Z,20.10
2019-01-19T18:28:31.717Z,21.57
2019-01-19T18:31:25.047Z,21.67
2019-01-19T18:34:02.608Z,19.97
2019-01-19T18:36:34.340Z,25.80
2019-01-19T18:39:12.284Z,25.57
2019-01-19T18:41:46.723Z,23.10
2019-01-19T18:44:21.613Z,22.63
2019-01-19T18:47:25.388Z,22.13
2019-01-19T18:50:06.038Z,18.87
2019-01-19T18:52:49.707Z,19.90
2019-01-19T18:55:33.201Z,22.13
2019-01-19T18:58:10.948Z,21.83
2019-01-19T19:00:51.465Z,19.57
2019-01-19T19:03:35.373Z,19.00
2019-01-19T19:06:29.393Z,18.60
2019-01-19T19:09:10.071Z,19.17
2019-01-19T19:12:10.318Z,17.87
2019-01-19T19:14:44.736Z,18.73
2019-01-19T19:17:22.135Z,18.50
2019-01-19T19:20:02.921Z,18.30
2019-01-19T19:22:34.795Z,19.03
2019-01-19T19:25:27.900Z,19.97
2019-01-19T19:28:08.383Z,17.53
2019-01-19T19:31:02.788Z,17.40
2019-01-19T19:33:43.409Z,18.87
2019-01-19T19:36:42.638Z,19.63
2019-01-19T19:39:40.385Z,18.90
2019-01-19T19:42:30.518Z,18.23
2019-01-19T19:45:23.543Z,19.27
2019-01-19T19:48:00.764Z,18.83
2019-01-19T19:50:56.815Z,19.00
2019-01-19T19:53:25.319Z,18.80
2019-01-19T19:55:52.829Z,18.63
2019-01-19T19:58:21.291Z,19.37
2019-01-19T20:00:50.665Z,18.60
2019-01-19T20:03:18.987Z,19.13
2019-01-19T20:05:47.654Z,18.77
2019-01-19T20:08:16.092Z,23.93
2019-01-19T20:10:44.760Z,23.27
2019-01-19T20:13:13.359Z,21.03
2019-01-19T20:15:41.929Z,21.10
2019-01-19T20:18:10.486Z,19.53
2019-01-19T20:20:38.969Z,19.50
2019-01-19T20:23:07.481Z,21.60
2019-01-19T20:25:38.575Z,22.70
2019-01-19T20:28:07.266Z,20.10
2019-01-19T20:30:35.804Z,21.17
2019-01-19T20:33:04.392Z,20.83
2019-01-19T20:35:32.942Z,20.80
2019-01-19T20:38:20.740Z,20.60
2019-01-19T20:40:49.383Z,20.57
2019-01-19T20:43:18.117Z,20.43
2019-01-19T20:45:47.881Z,19.13
2019-01-19T20:48:16.516Z,21.33
2019-01-19T20:50:44.989Z,21.40
2019-01-19T20:53:13.606Z,20.83
2019-01-19T20:55:42.328Z,21.17
2019-01-19T20:58:11.182Z,19.90
2019-01-19T21:00:39.663Z,19.43
2019-01-19T21:03:09.972Z,27.90
2019-01-19T21:05:38.422Z,20.73
2019-01-19T21:08:07.008Z,21.43
2019-01-19T21:10:35.519Z,19.57
2019-01-19T21:13:03.917Z,18.97
2019-01-19T21:15:34.008Z,19.53
2019-01-19T21:18:02.414Z,18.93
2019-01-19T21:20:30.943Z,18.47
2019-01-19T21:22:59.408Z,18.83
2019-01-19T21:25:27.861Z,18.17
2019-01-19T21:27:56.309Z,17.90
2019-01-19T21:30:24.700Z,17.83
2019-01-19T21:32:53.214Z,17.17
2019-01-19T21:35:21.739Z,16.67
2019-01-19T21:37:50.351Z,17.50
2019-01-19T21:40:18.898Z,18.23
2019-01-19T21:42:47.290Z,19.43
2019-01-19T21:45:21.979Z,19.70
2019-01-19T21:47:50.576Z,20.77
2019-01-19T21:50:19.035Z,20.97
2019-01-19T21:52:48.203Z,21.23
2019-01-19T21:55:16.796Z,20.03
2019-01-19T21:57:45.329Z,19.10
2019-01-19T22:00:19.217Z,19.90
2019-01-19T22:02:48.515Z,18.20
2019-01-19T22:05:17.022Z,22.00
2019-01-19T22:07:45.523Z,25.70
2019-01-19T22:10:22.471Z,24.60
2019-01-19T22:12:51.308Z,24.90
2019-01-19T22:15:20.053Z,24.60
2019-01-19T22:17:48.736Z,23.70
2019-01-19T22:20:18.086Z,19.10
2019-01-19T22:22:46.858Z,19.37
2019-01-19T22:25:15.535Z,20.07
2019-01-19T22:27:45.665Z,19.43
2019-01-19T22:30:19.800Z,19.50
2019-01-19T22:32:50.163Z,19.87
2019-01-19T22:35:20.685Z,19.63
2019-01-19T22:37:49.432Z,19.50
2019-01-19T22:40:18.518Z,21.00
2019-01-19T22:42:47.835Z,20.57
2019-01-19T22:45:17.114Z,21.33
2019-01-19T22:47:47.632Z,20.43
2019-01-19T22:50:21.414Z,21.40
2019-01-19T22:52:50.074Z,20.40
2019-01-19T22:55:18.885Z,20.20
2019-01-19T22:57:47.523Z,19.53
2019-01-19T23:00:51.309Z,19.80
2019-01-19T23:03:23.015Z,20.60
2019-01-19T23:05:51.539Z,20.03
2019-01-19T23:08:20.072Z,18.77
2019-01-19T23:10:48.499Z,19.13
2019-01-19T23:13:17.022Z,18.83
2019-01-19T23:15:45.682Z,19.87
2019-01-19T23:18:14.855Z,20.67
2019-01-19T23:20:43.631Z,19.10
2019-01-19T23:23:19.444Z,19.33
2019-01-19T23:25:47.951Z,19.40
2019-01-19T23:28:16.653Z,19.20
2019-01-19T23:30:45.263Z,18.80
2019-01-19T23:33:13.868Z,18.73
2019-01-19T23:35:42.528Z,19.40
2019-01-19T23:38:11.076Z,18.67
2019-01-19T23:40:39.737Z,15.93
2019-01-19T23:43:08.421Z,19.13
2019-01-19T23:45:37.186Z,19.13
2019-01-19T23:48:05.763Z,18.83
2019-01-19T23:50:34.261Z,19.30
2019-01-19T23:53:02.842Z,18.67
2019-01-19T23:55:31.214Z,18.97
2019-01-19T23:57:59.801Z,18.37
